Time;durP1;ratioP1;P1;durP2;ratioP2;P2;SDS_P1;SDS_P2;PMS_P1;PMS_P2;Temp;Humidity;BMP_temperature;BMP_pressure;BME280_temperature;BME280_humidity;BME280_pressure;Samples;Min_cycle;Max_cycle;Signal;HPM_P1;HPM_P2
2021/05/03 00:00:05;;;;;;;12.05;10.07;;;4.10;99.90;;;;;;6183873;28;20148;-79
2021/05/03 00:03:09;;;;;;;10.95;9.85;;;;;;;;;;6184436;28;20038;-78
2021/05/03 00:06:09;;;;;;;10.98;9.40;;;4.30;99.90;;;;;;6218626;28;20026;-80
2021/05/03 00:09:11;;;;;;;10.45;9.27;;;;;;;;;;6200658;28;20038;-78
2021/05/03 00:12:11;;;;;;;12.77;9.65;;;;;;;;;;6200641;28;20972;-77
2021/05/03 00:15:13;;;;;;;13.20;9.88;;;3.80;99.90;;;;;;6200368;28;20049;-78
2021/05/03 00:18:14;;;;;;;11.10;9.90;;;3.90;99.90;;;;;;6204034;28;20401;-80
2021/05/03 00:21:14;;;;;;;10.75;9.50;;;3.90;99.90;;;;;;6205380;28;20040;-79
2021/05/03 00:24:15;;;;;;;10.98;9.73;;;3.70;99.90;;;;;;6188860;28;20034;-78
2021/05/03 00:27:16;;;;;;;12.80;10.20;;;4.40;99.90;;;;;;6188485;28;20061;-78
2021/05/03 00:30:17;;;;;;;13.13;9.30;;;4.20;99.90;;;;;;6222819;28;20041;-77
2021/05/03 00:33:17;;;;;;;11.52;10.30;;;3.80;99.90;;;;;;6204953;28;20377;-80
2021/05/03 00:36:18;;;;;;;12.02;10.75;;;5.50;99.90;;;;;;6205292;28;20018;-79
2021/05/03 00:39:19;;;;;;;11.57;10.00;;;5.30;99.90;;;;;;6188797;28;20092;-78
2021/05/03 00:42:19;;;;;;;14.43;10.35;;;4.00;99.90;;;;;;6222858;28;20072;-79
2021/05/03 00:45:20;;;;;;;11.45;10.25;;;4.20;99.90;;;;;;6204515;28;20061;-78
2021/05/03 00:48:21;;;;;;;12.95;10.75;;;4.00;99.90;;;;;;6204025;28;20053;-78
2021/05/03 00:51:21;;;;;;;14.18;10.68;;;3.80;99.90;;;;;;6204802;28;20045;-79
2021/05/03 00:54:22;;;;;;;11.00;9.85;;;4.30;99.90;;;;;;6188730;28;20029;-78
2021/05/03 00:57:22;;;;;;;12.23;10.35;;;3.60;99.90;;;;;;6204751;28;20036;-78
2021/05/03 01:00:24;;;;;;;11.55;9.90;;;3.90;99.90;;;;;;6205026;28;20504;-78
2021/05/03 01:03:25;;;;;;;11.17;10.03;;;4.30;99.90;;;;;;6204806;28;20030;-78
2021/05/03 01:06:25;;;;;;;11.52;10.30;;;4.20;99.90;;;;;;6221877;28;20105;-78
2021/05/03 01:09:26;;;;;;;15.25;10.25;;;4.20;99.90;;;;;;6203915;28;20629;-78
2021/05/03 01:12:27;;;;;;;13.50;11.25;;;3.90;99.90;;;;;;6204838;28;20076;-78
2021/05/03 01:15:27;;;;;;;14.88;11.98;;;4.00;99.90;;;;;;6203823;28;20088;-79
2021/05/03 01:18:29;;;;;;;12.65;11.00;;;3.70;99.90;;;;;;6204300;28;20033;-80
2021/05/03 01:21:30;;;;;;;13.35;10.90;;;4.10;99.90;;;;;;6204374;28;20030;-80
2021/05/03 01:24:30;;;;;;;11.85;10.18;;;4.30;99.90;;;;;;6203712;28;20074;-78
2021/05/03 01:27:31;;;;;;;14.10;10.38;;;4.70;99.90;;;;;;6220806;28;20038;-78
2021/05/03 01:30:37;;;;;;;12.85;10.18;;;3.60;99.90;;;;;;6203786;28;20045;-80
2021/05/03 01:33:37;;;;;;;11.95;10.50;;;4.20;99.90;;;;;;6203406;28;20079;-78
2021/05/03 01:36:39;;;;;;;11.85;10.02;;;4.20;99.90;;;;;;6221299;28;20034;-78
2021/05/03 01:39:40;;;;;;;12.32;10.25;;;4.10;99.90;;;;;;6203763;28;20044;-78
2021/05/03 01:42:40;;;;;;;11.70;10.40;;;4.70;99.90;;;;;;6203004;28;20030;-78
2021/05/03 01:45:41;;;;;;;12.65;10.43;;;3.70;99.90;;;;;;6203620;28;20037;-78
2021/05/03 01:48:42;;;;;;;11.30;9.63;;;4.10;99.90;;;;;;6203117;28;20057;-77
2021/05/03 01:51:42;;;;;;;12.60;10.65;;;3.40;99.90;;;;;;6187070;28;20034;-78
2021/05/03 01:54:43;;;;;;;11.98;10.35;;;3.60;99.90;;;;;;6203009;28;20044;-78
2021/05/03 01:57:43;;;;;;;14.75;12.35;;;3.60;99.90;;;;;;6203349;28;20099;-78
2021/05/03 02:00:44;;;;;;;12.90;11.23;;;3.10;99.90;;;;;;6187412;28;20046;-78
2021/05/03 02:03:45;;;;;;;14.32;11.75;;;4.00;99.90;;;;;;6203023;28;20129;-79
2021/05/03 02:06:45;;;;;;;15.55;11.63;;;3.60;99.90;;;;;;6203177;28;20429;-78
2021/05/03 02:09:46;;;;;;;14.43;11.05;;;4.40;99.90;;;;;;6186500;28;20066;-79
2021/05/03 02:12:46;;;;;;;14.35;11.48;;;3.80;99.90;;;;;;6202605;28;20117;-79
2021/05/03 02:15:48;;;;;;;13.85;11.02;;;4.30;99.90;;;;;;6202468;28;20461;-78
2021/05/03 02:18:48;;;;;;;14.13;11.32;;;4.60;99.90;;;;;;6186429;28;20083;-78
2021/05/03 02:21:49;;;;;;;15.38;11.38;;;3.30;99.90;;;;;;6202660;28;20049;-78
2021/05/03 02:24:49;;;;;;;14.48;11.00;;;3.10;99.90;;;;;;6220388;28;20123;-79
2021/05/03 02:27:50;;;;;;;13.18;11.43;;;3.40;99.90;;;;;;6202930;28;20373;-79
2021/05/03 02:30:50;;;;;;;12.07;10.82;;;2.70;99.90;;;;;;6186233;28;20108;-78
2021/05/03 02:33:51;;;;;;;12.55;11.02;;;3.30;99.90;;;;;;6202362;28;20636;-78
2021/05/03 02:36:55;;;;;;;13.20;11.32;;;3.80;99.90;;;;;;6185869;28;20030;-78
2021/05/03 02:39:56;;;;;;;15.95;12.45;;;3.00;99.90;;;;;;6185735;28;20034;-78
2021/05/03 02:42:58;;;;;;;15.05;11.90;;;2.80;99.90;;;;;;6185882;28;20033;-77
2021/05/03 02:45:58;;;;;;;14.63;12.13;;;2.90;99.90;;;;;;6202570;28;20038;-78
2021/05/03 02:48:59;;;;;;;14.27;11.60;;;3.00;99.90;;;;;;6201723;28;20090;-78
2021/05/03 02:51:59;;;;;;;13.52;12.07;;;3.60;99.90;;;;;;6185797;28;20042;-80
2021/05/03 02:55:00;;;;;;;13.27;11.82;;;2.80;99.90;;;;;;6202048;28;20026;-79
2021/05/03 02:58:01;;;;;;;13.35;11.88;;;2.90;99.90;;;;;;6201888;28;20365;-79
2021/05/03 03:01:01;;;;;;;15.10;11.70;;;2.80;99.90;;;;;;6201699;28;20484;-78
2021/05/03 03:04:02;;;;;;;14.55;11.57;;;;;;;;;;6201569;28;20101;-79
2021/05/03 03:07:03;;;;;;;13.38;11.32;;;3.20;99.90;;;;;;6201314;28;20032;-78
2021/05/03 03:10:04;;;;;;;13.75;11.00;;;3.40;99.90;;;;;;6185041;28;20468;-79
2021/05/03 03:13:05;;;;;;;13.00;10.93;;;2.90;99.90;;;;;;6201389;28;20140;-78
2021/05/03 03:16:06;;;;;;;17.20;12.35;;;2.50;99.90;;;;;;6201531;28;20022;-78
2021/05/03 03:19:06;;;;;;;13.80;11.63;;;2.60;99.90;;;;;;6201672;28;20030;-78
2021/05/03 03:22:07;;;;;;;14.13;11.73;;;2.60;99.90;;;;;;6219285;28;20116;-78
2021/05/03 03:25:08;;;;;;;12.32;11.02;;;2.60;99.90;;;;;;6201489;28;20091;-79
2021/05/03 03:28:08;;;;;;;13.35;11.45;;;2.40;99.90;;;;;;6201346;28;20609;-78
2021/05/03 03:31:09;;;;;;;13.98;12.23;;;2.40;99.90;;;;;;6201488;28;20026;-78
2021/05/03 03:34:10;;;;;;;16.25;13.20;;;2.80;99.90;;;;;;6201550;28;20034;-78
2021/05/03 03:37:10;;;;;;;16.73;12.32;;;2.70;99.90;;;;;;6218747;28;20026;-78
2021/05/03 03:40:12;;;;;;;14.63;11.75;;;2.20;99.90;;;;;;6201309;28;20049;-79
2021/05/03 03:43:13;;;;;;;14.40;12.60;;;;;;;;;;6200841;28;20041;-78
2021/05/03 03:46:14;;;;;;;14.35;11.05;;;;;;;;;;6201311;28;20073;-78
2021/05/03 03:49:15;;;;;;;16.27;12.38;;;;;;;;;;6218702;28;20046;-78
2021/05/03 03:52:16;;;;;;;16.30;12.68;;;;;;;;;;6207577;28;20026;-79
2021/05/03 03:55:17;;;;;;;18.48;12.80;;;;;;;;;;6227273;28;20053;-78
2021/05/03 03:58:18;;;;;;;14.68;12.65;;;;;;;;;;6192723;28;20021;-78
2021/05/03 04:01:19;;;;;;;20.65;13.18;;;;;;;;;;6208962;28;20022;-78
2021/05/03 04:04:25;;;;;;;18.55;14.02;;;;;;;;;;6226983;28;20057;-80
2021/05/03 04:10:48;;;;;;;16.20;12.95;;;;;;;;;;6209126;28;20056;-79
2021/05/03 04:24:07;;;;;;;21.48;19.13;;;;;;;;;;6226527;28;20062;-77
2021/05/03 04:27:08;;;;;;;27.13;22.75;;;;;;;;;;6211183;28;20028;-78
2021/05/03 04:30:09;;;;;;;19.38;13.85;;;2.30;99.90;;;;;;6226322;28;20045;-79
2021/05/03 04:33:10;;;;;;;17.33;15.30;;;;;;;;;;6208289;28;20121;-78
2021/05/03 04:36:11;;;;;;;28.17;21.50;;;3.00;99.90;;;;;;6203568;28;20392;-83
2021/05/03 04:39:12;;;;;;;16.20;14.15;;;;;;;;;;6192575;28;20531;-82
2021/05/03 04:42:13;;;;;;;15.82;14.15;;;;;;;;;;6226861;28;20022;-84
2021/05/03 04:45:15;;;;;;;16.25;14.35;;;;;;;;;;6178569;28;20033;-85
2021/05/03 04:48:16;;;;;;;14.32;12.70;;;;;;;;;;6192185;28;20088;-86
2021/05/03 04:51:17;;;;;;;14.00;11.88;;;3.70;99.90;;;;;;6192591;28;20492;-87
2021/05/03 04:54:18;;;;;;;17.08;13.50;;;3.70;99.90;;;;;;6192294;28;20108;-84
2021/05/03 04:57:18;;;;;;;16.25;12.52;;;4.00;99.90;;;;;;6192434;28;20472;-84
2021/05/03 05:00:19;;;;;;;16.75;12.82;;;4.00;99.90;;;;;;6191993;28;20036;-83
2021/05/03 05:03:20;;;;;;;20.00;12.50;;;;;;;;;;6189240;28;20041;-84
2021/05/03 05:06:21;;;;;;;13.43;11.55;;;4.90;99.90;;;;;;6204969;28;20038;-81
2021/05/03 05:09:22;;;;;;;23.80;15.95;;;5.40;99.90;;;;;;6204836;28;20038;-79
2021/05/03 05:12:22;;;;;;;22.13;17.15;;;6.10;99.90;;;;;;6204663;28;20038;-83
2021/05/03 05:15:23;;;;;;;13.20;11.75;;;5.70;99.90;;;;;;6204378;28;20025;-84
2021/05/03 05:18:24;;;;;;;12.77;11.40;;;;;;;;;;6187927;28;20030;-82
2021/05/03 05:21:24;;;;;;;12.93;11.23;;;6.30;99.90;;;;;;6221797;28;20041;-83
2021/05/03 05:24:25;;;;;;;11.68;10.35;;;;;;;;;;6188045;28;20377;-82
2021/05/03 05:27:26;;;;;;;12.65;11.35;;;6.80;99.90;;;;;;6188805;28;20033;-84
2021/05/03 05:30:27;;;;;;;17.70;11.85;;;7.00;99.90;;;;;;6204491;28;20045;-82
2021/05/03 05:33:27;;;;;;;12.43;10.80;;;6.80;99.90;;;;;;6187600;28;20079;-84
2021/05/03 05:36:28;;;;;;;12.68;10.73;;;6.90;99.90;;;;;;6187896;28;20030;-80
2021/05/03 05:39:29;;;;;;;12.98;11.15;;;6.90;99.90;;;;;;6204020;28;20049;-80
2021/05/03 05:42:30;;;;;;;14.63;11.23;;;7.70;99.90;;;;;;6203615;28;20029;-81
2021/05/03 05:45:30;;;;;;;13.10;11.70;;;7.50;99.50;;;;;;6203664;28;20041;-83
2021/05/03 05:48:31;;;;;;;14.55;11.07;;;7.90;98.90;;;;;;6221089;28;20385;-82
2021/05/03 05:51:31;;;;;;;15.05;11.07;;;8.10;99.90;;;;;;6168261;28;20030;-85
2021/05/03 05:54:32;;;;;;;13.55;10.77;;;8.30;97.90;;;;;;6194636;28;20026;-84
2021/05/03 05:57:32;;;;;;;12.38;10.43;;;9.00;99.90;;;;;;6202324;28;20384;-83
2021/05/03 06:00:33;;;;;;;14.20;9.63;;;8.90;96.60;;;;;;6201838;28;20055;-83
2021/05/03 06:03:34;;;;;;;10.70;9.60;;;9.30;96.00;;;;;;6202433;28;20060;-85
2021/05/03 06:06:34;;;;;;;10.73;9.30;;;10.20;94.90;;;;;;6202838;28;20034;-82
2021/05/03 06:09:35;;;;;;;10.07;9.07;;;10.00;94.00;;;;;;6169981;28;20139;-83
2021/05/03 06:12:36;;;;;;;9.63;8.73;;;10.10;94.20;;;;;;6186520;28;20033;-83
2021/05/03 06:15:36;;;;;;;9.77;8.52;;;10.10;93.70;;;;;;6185842;28;20080;-82
2021/05/03 06:18:37;;;;;;;9.75;8.38;;;;;;;;;;6187213;28;20038;-82
2021/05/03 06:21:38;;;;;;;10.65;8.55;;;10.60;91.90;;;;;;6203162;28;20100;-82
2021/05/03 06:24:39;;;;;;;10.73;8.52;;;11.20;97.70;;;;;;6220737;28;20075;-82
2021/05/03 06:27:40;;;;;;;10.93;9.05;;;11.50;91.60;;;;;;6185983;28;20385;-82
2021/05/03 06:30:40;;;;;;;9.45;8.55;;;11.60;90.80;;;;;;6186464;28;20042;-85
2021/05/03 06:33:41;;;;;;;9.88;8.88;;;11.70;91.30;;;;;;6186149;28;20045;-83
2021/05/03 06:36:41;;;;;;;9.18;8.30;;;11.90;90.60;;;;;;6186446;28;20030;-84
2021/05/03 06:39:42;;;;;;;9.63;8.07;;;12.60;95.70;;;;;;6169792;28;20044;-84
2021/05/03 06:42:43;;;;;;;9.60;8.20;;;13.10;94.60;;;;;;6186046;28;20809;-83
2021/05/03 06:45:44;;;;;;;8.55;7.75;;;13.10;82.70;;;;;;6186227;28;20354;-83
2021/05/03 06:48:44;;;;;;;8.68;7.78;;;13.00;85.30;;;;;;6201651;28;20058;-85
2021/05/03 06:51:46;;;;;;;11.77;10.57;;;;;;;;;;6169824;28;20034;-84
2021/05/03 06:54:46;;;;;;;8.52;7.70;;;12.90;79.30;;;;;;6202118;28;20137;-83
2021/05/03 06:57:47;;;;;;;9.73;8.20;;;13.40;82.30;;;;;;6185485;28;20030;-83
2021/05/03 07:00:48;;;;;;;8.90;8.00;;;;;;;;;;6185465;28;20400;-83
2021/05/03 07:03:49;;;;;;;8.95;8.02;;;14.50;76.20;;;;;;6185235;28;20034;-84
2021/05/03 07:06:50;;;;;;;8.93;8.00;;;;;;;;;;6185490;28;20083;-84
2021/05/03 07:09:50;;;;;;;8.68;7.80;;;15.40;71.40;;;;;;6201566;28;20392;-86
2021/05/03 07:12:51;;;;;;;8.55;7.75;;;15.80;74.60;;;;;;6169551;28;20030;-84
2021/05/03 07:15:52;;;;;;;8.40;7.53;;;16.10;74.80;;;;;;6185339;28;20037;-84
2021/05/03 07:18:52;;;;;;;8.57;7.75;;;16.20;73.40;;;;;;6201895;28;20037;-82
2021/05/03 07:21:53;;;;;;;8.68;7.78;;;16.60;72.20;;;;;;6184776;28;20041;-79
2021/05/03 07:24:54;;;;;;;8.73;7.93;;;;;;;;;;6184579;28;20041;-82
2021/05/03 07:27:54;;;;;;;8.85;7.47;;;17.50;63.80;;;;;;6201442;28;20718;-84
2021/05/03 07:30:58;;;;;;;7.97;7.22;;;17.50;66.70;;;;;;6184994;28;20045;-81
2021/05/03 07:33:59;;;;;;;7.65;6.95;;;18.60;61.60;;;;;;6186009;28;20081;-81
2021/05/03 07:36:59;;;;;;;6.82;6.22;;;18.40;61.90;;;;;;6168712;28;20030;-81
2021/05/03 07:40:00;;;;;;;7.20;6.55;;;18.20;61.50;;;;;;6168832;28;20033;-80
2021/05/03 07:43:01;;;;;;;7.38;6.68;;;18.40;58.60;;;;;;6167906;28;20032;-82
2021/05/03 07:46:02;;;;;;;8.30;6.65;;;18.60;75.60;;;;;;6184709;28;20449;-80
2021/05/03 07:49:03;;;;;;;6.93;6.13;;;18.40;82.70;;;;;;6184524;28;20231;-81
2021/05/03 07:52:05;;;;;;;7.22;6.32;;;18.80;85.00;;;;;;6184389;28;20112;-82
2021/05/03 07:55:06;;;;;;;7.07;6.38;;;18.80;73.10;;;;;;6200651;28;20049;-81
2021/05/03 07:58:07;;;;;;;6.40;5.78;;;18.80;68.20;;;;;;6184329;28;20053;-83
2021/05/03 08:01:09;;;;;;;7.82;6.70;;;19.30;83.40;;;;;;6168340;28;20026;-81
2021/05/03 08:04:09;;;;;;;6.82;5.55;;;19.20;74.10;;;;;;6200226;28;20495;-85
2021/05/03 08:07:10;;;;;;;5.30;4.80;;;19.20;75.00;;;;;;6168262;28;20030;-85
2021/05/03 08:10:11;;;;;;;5.97;5.38;;;19.70;80.10;;;;;;6172215;28;20068;-83
2021/05/03 08:13:11;;;;;;;5.32;4.75;;;19.70;77.90;;;;;;6168248;28;20036;-81
2021/05/03 08:16:14;;;;;;;6.35;5.47;;;19.80;72.60;;;;;;6184129;28;20466;-84
2021/05/03 08:19:15;;;;;;;6.10;4.82;;;;;;;;;;6185039;28;20053;-81
2021/05/03 08:22:16;;;;;;;9.85;6.68;;;;;;;;;;6200531;28;20022;-81
2021/05/03 08:25:17;;;;;;;6.82;5.55;;;;;;;;;;6217803;28;20037;-83
2021/05/03 08:28:18;;;;;;;8.23;6.43;;;;;;;;;;6184314;28;20156;-84
2021/05/03 08:31:19;;;;;;;6.70;5.22;;;20.20;75.40;;;;;;6183741;28;20798;-81
2021/05/03 08:34:20;;;;;;;6.40;5.40;;;;;;;;;;6200407;28;20041;-81
2021/05/03 08:37:21;;;;;;;6.65;5.82;;;20.60;60.10;;;;;;6201692;28;20026;-83
2021/05/03 08:40:22;;;;;;;6.63;5.20;;;;;;;;;;6205148;28;20034;-81
2021/05/03 08:43:23;;;;;;;6.22;5.63;;;;;;;;;;6188516;28;20068;-82
2021/05/03 08:46:31;;;;;;;5.30;4.80;;;20.40;43.40;;;;;;6204561;28;20786;-81
2021/05/03 08:49:47;;;;;;;5.03;4.53;;;20.70;45.80;;;;;;6190019;28;20100;-80
2021/05/03 08:52:53;;;;;;;6.53;4.95;;;20.70;41.70;;;;;;6176442;28;20033;-80
2021/05/03 08:55:54;;;;;;;6.05;5.10;;;20.80;44.80;;;;;;6189768;28;20029;-81
2021/05/03 08:58:54;;;;;;;8.15;4.53;;;21.00;46.30;;;;;;6204692;28;20129;-84
2021/05/03 09:01:55;;;;;;;5.05;4.55;;;21.00;45.30;;;;;;6171567;28;20605;-80
2021/05/03 09:04:56;;;;;;;6.10;3.80;;;20.70;43.50;;;;;;6188334;28;20033;-81
2021/05/03 09:07:57;;;;;;;4.63;3.70;;;20.50;45.20;;;;;;6188620;28;20026;-83
2021/05/03 09:10:58;;;;;;;6.20;4.35;;;20.60;42.40;;;;;;6187838;28;20551;-80
2021/05/03 09:14:09;;;;;;;6.55;4.50;;;20.90;46.90;;;;;;6204351;28;20810;-80
2021/05/03 09:17:12;;;;;;;5.22;4.45;;;20.70;42.90;;;;;;6187478;28;20431;-84
2021/05/03 09:20:15;;;;;;;5.88;5.15;;;20.60;46.20;;;;;;6187618;28;20026;-81
2021/05/03 09:23:23;;;;;;;5.10;4.60;;;20.70;45.30;;;;;;6187958;28;20037;-84
2021/05/03 09:26:34;;;;;;;4.90;4.30;;;21.10;43.90;;;;;;6205129;28;20022;-80
2021/05/03 09:29:39;;;;;;;6.07;4.40;;;21.20;44.10;;;;;;6221281;28;20045;-81
2021/05/03 09:32:40;;;;;;;5.30;4.80;;;21.40;45.40;;;;;;6187482;28;20038;-81
2021/05/03 09:35:57;;;;;;;5.93;4.72;;;21.20;42.70;;;;;;6203467;28;20030;-85
2021/05/03 09:38:58;;;;;;;6.28;5.13;;;21.30;43.40;;;;;;6187253;28;20484;-83
2021/05/03 09:41:58;;;;;;;5.72;4.82;;;21.20;44.40;;;;;;6187075;28;20113;-80
2021/05/03 09:45:22;;;;;;;5.20;4.70;;;21.10;44.80;;;;;;6171160;28;20030;-81
2021/05/03 09:48:22;;;;;;;5.35;4.45;;;21.40;42.70;;;;;;6188207;28;20053;-80
2021/05/03 09:51:39;;;;;;;6.97;4.85;;;21.10;44.40;;;;;;6187216;28;20038;-80
2021/05/03 09:54:39;;;;;;;5.22;4.50;;;20.90;44.00;;;;;;6203109;28;20030;-80
2021/05/03 09:57:40;;;;;;;4.30;3.90;;;19.60;59.60;;;;;;6187118;28;20104;-83
2021/05/03 10:00:45;;;;;;;4.90;3.85;;;19.30;43.60;;;;;;6186652;28;20554;-81
2021/05/03 10:03:47;;;;;;;4.82;4.22;;;18.80;43.30;;;;;;6171523;28;20030;-82
2021/05/03 10:06:47;;;;;;;6.65;4.32;;;19.50;43.90;;;;;;6171138;28;20030;-81
2021/05/03 10:09:51;;;;;;;4.80;4.15;;;20.10;45.00;;;;;;6186923;28;20046;-81
2021/05/03 10:12:52;;;;;;;6.22;4.78;;;20.50;44.20;;;;;;6202853;28;20709;-78
2021/05/03 10:15:54;;;;;;;4.50;4.10;;;21.00;46.70;;;;;;6184364;28;20032;-85
2021/05/03 10:18:55;;;;;;;;;;;21.20;45.00;;;;;;6186103;28;20116;-82
2021/05/03 10:21:56;;;;;;;5.20;4.03;;;21.40;44.00;;;;;;6201726;28;19959;-84
2021/05/03 10:25:04;;;;;;;4.70;4.05;;;21.30;44.00;;;;;;6184578;28;20101;-82
2021/05/03 10:28:04;;;;;;;4.15;3.75;;;21.50;43.10;;;;;;6202158;28;20025;-82
2021/05/03 10:31:05;;;;;;;5.38;3.80;;;21.90;39.90;;;;;;6169836;28;20141;-82
2021/05/03 10:34:05;;;;;;;5.00;4.07;;;22.00;43.50;;;;;;6185645;28;20026;-83
2021/05/03 10:37:31;;;;;;;5.07;3.60;;;22.10;40.70;;;;;;6170259;28;20518;-84
2021/05/03 10:40:35;;;;;;;4.30;3.88;;;22.20;41.00;;;;;;6194220;28;20033;-82
2021/05/03 10:43:38;;;;;;;5.43;4.07;;;22.50;38.80;;;;;;6186251;28;20427;-82
2021/05/03 10:49:44;;;;;;;4.75;3.95;;;22.10;43.00;;;;;;6185525;28;20057;-79
2021/05/03 10:52:45;;;;;;;4.70;3.88;;;21.70;42.50;;;;;;6172278;28;20038;-81
2021/05/03 10:55:50;;;;;;;4.50;4.10;;;20.10;75.50;;;;;;6202531;28;20021;-86
2021/05/03 10:58:56;;;;;;;4.22;3.83;;;21.80;46.40;;;;;;6169033;28;20559;-84
2021/05/03 11:01:59;;;;;;;7.45;3.95;;;19.00;78.70;;;;;;6198942;28;20026;-86
2021/05/03 11:05:12;;;;;;;5.22;4.13;;;18.90;80.70;;;;;;6219268;28;20532;-88
2021/05/03 11:08:12;;;;;;;5.45;4.13;;;19.10;78.70;;;;;;6219598;28;20026;-84
2021/05/03 11:11:13;;;;;;;5.13;4.03;;;;;;;;;;6218057;28;20075;-83
2021/05/03 11:14:16;;;;;;;9.05;5.50;;;18.50;52.40;;;;;;6201146;28;20484;-80
2021/05/03 11:17:18;;;;;;;3.53;3.17;;;18.80;51.60;;;;;;6185087;28;20388;-81
2021/05/03 11:20:19;;;;;;;5.07;3.30;;;18.70;49.30;;;;;;6169167;28;20034;-80
2021/05/03 11:23:28;;;;;;;3.90;3.50;;;18.50;51.70;;;;;;6184918;28;20116;-82
2021/05/03 11:26:32;;;;;;;4.68;3.55;;;18.30;55.00;;;;;;6185329;28;20388;-83
2021/05/03 11:29:49;;;;;;;4.15;3.40;;;18.20;56.00;;;;;;6201389;28;20037;-82
2021/05/03 11:32:52;;;;;;;3.10;2.80;;;17.70;55.30;;;;;;6203995;28;20109;-81
2021/05/03 11:46:24;;;;;;;4.40;3.33;;;16.60;71.20;;;;;;6112567;29;20043;-83
2021/05/03 11:49:25;;;;;;;4.85;3.20;;;16.80;73.00;;;;;;6118740;29;20545;-82
2021/05/03 11:52:30;;;;;;;3.33;3.03;;;16.80;72.80;;;;;;6119315;29;20612;-81
2021/05/03 11:55:31;;;;;;;2.95;2.65;;;16.80;69.90;;;;;;6119971;29;20055;-83
2021/05/03 11:58:31;;;;;;;3.80;3.08;;;16.80;70.40;;;;;;6118025;29;20047;-82
2021/05/03 12:01:32;;;;;;;3.90;2.80;;;16.40;58.90;;;;;;6118222;29;20483;-81
2021/05/03 12:04:34;;;;;;;3.42;2.90;;;16.80;62.80;;;;;;6101532;29;20032;-82
2021/05/03 12:07:34;;;;;;;3.50;3.20;;;17.00;60.80;;;;;;6118403;29;20475;-81
2021/05/03 12:10:35;;;;;;;4.43;3.17;;;17.20;57.70;;;;;;6118940;29;20050;-84
2021/05/03 12:13:36;;;;;;;4.97;3.28;;;17.40;56.90;;;;;;6122962;29;20099;-83
2021/05/03 12:16:38;;;;;;;4.45;3.20;;;18.20;56.90;;;;;;6108135;29;20038;-83
2021/05/03 12:19:38;;;;;;;4.05;3.17;;;18.10;54.30;;;;;;6157592;28;20503;-81
2021/05/03 12:22:40;;;;;;;3.25;2.90;;;18.30;54.00;;;;;;6188672;28;20037;-84
2021/05/03 12:25:53;;;;;;;3.63;3.10;;;18.70;54.80;;;;;;6173804;28;20548;-84
2021/05/03 12:28:53;;;;;;;3.67;3.17;;;19.10;57.40;;;;;;6191461;28;20041;-83
2021/05/03 12:31:54;;;;;;;3.50;3.20;;;18.90;53.80;;;;;;6172434;28;20038;-84
2021/05/03 12:34:55;;;;;;;3.47;3.17;;;19.00;53.20;;;;;;6172716;28;20499;-83
2021/05/03 12:37:55;;;;;;;4.28;3.88;;;18.90;53.60;;;;;;6172724;28;20066;-84
2021/05/03 12:40:58;;;;;;;4.28;3.78;;;18.80;57.20;;;;;;6188469;28;20526;-84
2021/05/03 12:44:02;;;;;;;5.05;3.30;;;18.80;54.70;;;;;;6173005;28;20435;-81
2021/05/03 12:47:03;;;;;;;6.75;3.63;;;18.80;56.00;;;;;;6176106;28;20032;-82
2021/05/03 12:50:31;;;;;;;3.53;3.10;;;19.40;67.70;;;;;;6171485;28;20066;-82
2021/05/03 12:53:32;;;;;;;3.88;3.45;;;19.40;79.40;;;;;;6193122;28;20118;-82
2021/05/03 12:56:46;;;;;;;4.82;3.33;;;;;;;;;;6205680;28;20022;-83
2021/05/03 13:03:05;;;;;;;3.43;3.13;;;19.40;65.80;;;;;;6203028;28;20393;-81
2021/05/03 13:06:17;;;;;;;4.88;3.75;;;19.10;79.00;;;;;;6202562;28;20428;-81
2021/05/03 13:23:29;;;;;;;4.88;3.40;;;19.30;72.00;;;;;;6192930;28;20465;-82
2021/05/03 13:29:45;;;;;;;4.32;3.50;;;18.80;71.10;;;;;;6162188;28;20053;-80
2021/05/03 13:32:46;;;;;;;4.68;3.45;;;18.70;66.80;;;;;;6171742;28;20030;-80
2021/05/03 13:35:47;;;;;;;4.35;3.50;;;18.80;78.60;;;;;;6203964;28;20029;-80
2021/05/03 13:38:49;;;;;;;3.58;3.20;;;18.60;80.80;;;;;;6187615;28;20480;-80
2021/05/03 13:41:50;;;;;;;3.80;3.08;;;;;;;;;;6187924;28;20041;-80
2021/05/03 13:44:51;;;;;;;3.15;2.85;;;18.50;81.00;;;;;;6186972;28;20040;-83
2021/05/03 13:47:52;;;;;;;3.25;2.97;;;18.80;84.00;;;;;;6169509;28;20054;-83
2021/05/03 13:50:53;;;;;;;4.05;3.00;;;18.60;74.30;;;;;;6185282;28;20236;-80
2021/05/03 13:53:54;;;;;;;3.40;3.10;;;;;;;;;;6218570;28;20040;-81
2021/05/03 13:56:59;;;;;;;7.53;5.88;;;17.80;78.10;;;;;;6204096;28;20026;-80
2021/05/03 13:59:59;;;;;;;3.38;3.08;;;18.00;60.70;;;;;;6202847;28;20156;-79
2021/05/03 14:03:00;;;;;;;3.10;2.80;;;18.00;81.20;;;;;;6186935;28;20540;-80
2021/05/03 14:06:01;;;;;;;3.53;3.00;;;;;;;;;;6219059;28;20416;-81
2021/05/03 14:09:01;;;;;;;3.15;2.85;;;18.10;61.30;;;;;;6219914;28;20066;-80
2021/05/03 14:12:03;;;;;;;3.08;2.80;;;18.00;63.20;;;;;;6186632;28;20443;-79
2021/05/03 14:15:04;;;;;;;3.13;2.83;;;17.60;66.20;;;;;;6203173;28;20119;-80
2021/05/03 14:18:05;;;;;;;3.42;3.13;;;18.20;47.40;;;;;;6202269;28;20480;-79
2021/05/03 14:21:11;;;;;;;3.50;3.20;;;18.30;52.10;;;;;;6202718;28;20064;-82
2021/05/03 14:24:12;;;;;;;3.25;2.95;;;18.30;48.30;;;;;;6203608;28;20033;-80
2021/05/03 14:27:13;;;;;;;4.53;3.67;;;18.60;69.90;;;;;;6185706;28;20496;-81
2021/05/03 14:30:27;;;;;;;3.10;2.80;;;18.40;67.40;;;;;;6201693;28;20034;-80
2021/05/03 14:33:30;;;;;;;2.95;2.65;;;18.50;48.10;;;;;;6172983;28;20109;-85
2021/05/03 14:36:30;;;;;;;3.58;2.92;;;18.50;51.30;;;;;;6202226;28;20030;-83
2021/05/03 14:39:31;;;;;;;3.72;3.17;;;18.40;52.40;;;;;;6169549;28;20034;-80
2021/05/03 14:42:32;;;;;;;3.67;3.22;;;18.30;51.30;;;;;;6181827;28;20061;-81
2021/05/03 14:45:35;;;;;;;5.38;3.22;;;18.20;50.90;;;;;;6185396;28;20130;-82
2021/05/03 14:48:42;;;;;;;4.50;3.10;;;18.00;51.50;;;;;;6182315;28;20133;-79
2021/05/03 14:52:00;;;;;;;4.80;3.20;;;17.80;51.80;;;;;;6199197;28;20575;-80
2021/05/03 14:55:00;;;;;;;7.53;3.25;;;17.80;49.20;;;;;;6183999;28;20711;-81
2021/05/03 14:58:01;;;;;;;4.65;3.10;;;17.40;52.00;;;;;;6198633;28;20030;-80
2021/05/03 15:01:02;;;;;;;3.63;3.15;;;17.60;53.80;;;;;;6219501;28;20034;-80
2021/05/03 15:04:04;;;;;;;5.22;3.40;;;17.80;50.50;;;;;;6185619;28;20449;-78
2021/05/03 15:07:08;;;;;;;;;;;17.50;49.50;;;;;;6201381;28;20026;-81
2021/05/03 15:10:09;;;;;;;3.35;3.00;;;17.60;54.80;;;;;;6201276;28;19917;-78
2021/05/03 15:13:16;;;;;;;5.25;3.38;;;17.60;52.70;;;;;;6219180;28;20510;-79
2021/05/03 15:19:43;;;;;;;6.15;5.15;;;17.90;55.60;;;;;;6218938;28;20026;-77
2021/05/03 15:22:43;;;;;;;8.88;4.13;;;17.80;53.10;;;;;;6204320;28;21017;-77
2021/05/03 15:25:49;;;;;;;3.50;3.08;;;17.70;54.20;;;;;;6201097;28;20033;-78
2021/05/03 15:35:20;;;;;;;3.35;3.05;;;18.00;52.60;;;;;;6202747;28;20034;-80
2021/05/03 15:38:20;;;;;;;4.70;3.08;;;17.70;54.70;;;;;;6200959;28;20372;-78
2021/05/03 15:41:21;;;;;;;3.67;3.25;;;17.50;54.10;;;;;;6218000;28;20030;-79
2021/05/03 15:44:24;;;;;;;4.20;3.80;;;17.50;55.00;;;;;;6201309;28;20030;-79
2021/05/03 15:47:27;;;;;;;7.55;3.03;;;17.40;55.60;;;;;;6185184;28;20030;-78
2021/05/03 15:50:27;;;;;;;3.50;3.13;;;17.30;54.70;;;;;;6200844;28;20108;-79
2021/05/03 15:53:28;;;;;;;4.53;3.35;;;17.20;54.70;;;;;;6200605;28;20409;-78
2021/05/03 15:56:30;;;;;;;4.95;2.78;;;17.10;55.20;;;;;;6198327;28;20033;-79
2021/05/03 15:59:31;;;;;;;5.35;3.67;;;17.10;54.60;;;;;;6183460;28;20037;-79
2021/05/03 16:02:31;;;;;;;3.58;3.10;;;17.20;71.70;;;;;;6197860;28;20124;-81
2021/05/03 16:05:34;;;;;;;4.30;3.40;;;16.40;54.00;;;;;;6199911;28;20477;-81
2021/05/03 16:08:35;;;;;;;6.18;3.30;;;17.00;52.70;;;;;;6184439;28;20026;-80
2021/05/03 16:11:39;;;;;;;11.50;3.20;;;16.70;53.20;;;;;;6201201;28;20030;-78
2021/05/03 16:14:40;;;;;;;3.33;2.90;;;16.60;52.50;;;;;;6201402;28;20022;-80
2021/05/03 16:17:40;;;;;;;3.35;3.05;;;16.70;72.60;;;;;;6183735;28;20449;-78
2021/05/03 16:20:41;;;;;;;4.68;3.08;;;16.70;55.40;;;;;;6200655;28;20041;-78
2021/05/03 16:23:41;;;;;;;2.95;2.72;;;16.70;57.20;;;;;;6185039;28;20042;-78
2021/05/03 16:26:42;;;;;;;3.67;3.22;;;16.70;56.60;;;;;;6200580;28;20038;-78
2021/05/03 16:29:43;;;;;;;5.15;3.40;;;16.70;57.40;;;;;;6218142;28;20046;-81
2021/05/03 16:32:46;;;;;;;5.18;3.50;;;16.70;57.90;;;;;;6200887;28;20029;-80
2021/05/03 16:35:47;;;;;;;4.28;3.33;;;16.90;55.80;;;;;;6200954;28;20457;-78
2021/05/03 16:38:48;;;;;;;5.57;3.53;;;16.50;56.80;;;;;;6184299;28;20108;-80
2021/05/03 16:41:48;;;;;;;6.28;3.00;;;16.40;57.20;;;;;;6200992;28;20030;-81
2021/05/03 16:44:49;;;;;;;3.67;3.22;;;16.30;58.90;;;;;;6167886;28;20030;-82
2021/05/03 16:47:50;;;;;;;6.03;3.50;;;16.50;58.80;;;;;;6184180;28;20053;-85
2021/05/03 16:50:51;;;;;;;3.80;3.38;;;16.50;58.80;;;;;;6200156;28;20097;-80
2021/05/03 16:53:51;;;;;;;4.88;3.00;;;16.60;56.70;;;;;;6184310;28;20061;-79